LZIB/BTS METAR and TAF weather

Enter ICAO airport designator
Station Type Date Time Source
LZIB METAR 2018/12/13 07:00 UTC NOAA

LZIB 130700Z 01004KT 9999 BKN008 M03/M04 Q1022 NOSIG


Station Type Date Time Source
LZIB Decoded METAR 2018/12/13 07:00 UTC NOAA

Bratislava Ivanka, Slovakia (LZIB) 48-12N 017-12E 142M
Dec 13, 2018 - 02:00 AM EST / 2018.12.13 0700 UTC
Wind: from the N (010 degrees) at 5 MPH (4 KT):0
Visibility: greater than 7 mile(s):0
Sky conditions: mostly cloudy
Temperature: 26 F (-3 C)
Windchill: 19 F (-7 C):1
Dew Point: 24 F (-4 C)
Relative Humidity: 92%
Pressure (altimeter): 30.18 in. Hg (1022 hPa)
ob: LZIB 130700Z 01004KT 9999 BKN008 M03/M04 Q1022 NOSIG
cycle: 7

Station Type Date Time Source
LZIB TAF 2018/12/13 07:00 UTC NOAA

TAF
AMD LZIB 130721Z 1307/1406 06005KT 9999 BKN008
BECMG 1309/1311 FEW010 BKN020
TEMPO 1313/1316 13006KT SCT027
BECMG 1318/1320 3000 BR SCT004 BKN006
TEMPO 1322/1406 0700 FZFG BKN002


Example: see airport list